createdAt,value
2022-09-10T00:01:20.537Z,18.00
2022-09-10T00:03:50.789Z,18.00
2022-09-10T00:06:19.986Z,17.90
2022-09-10T00:08:49.177Z,17.90
2022-09-10T00:11:17.259Z,18.00
2022-09-10T00:13:45.595Z,17.90
2022-09-10T00:16:15.989Z,17.90
2022-09-10T00:18:44.845Z,17.90
2022-09-10T00:21:16.086Z,17.90
2022-09-10T00:23:45.518Z,17.90
2022-09-10T00:26:16.775Z,18.00
2022-09-10T00:28:45.298Z,17.90
2022-09-10T00:31:14.277Z,18.00
2022-09-10T00:33:42.784Z,18.00
2022-09-10T00:36:21.610Z,18.00
2022-09-10T00:38:51.401Z,18.00
2022-09-10T00:41:20.583Z,18.00
2022-09-10T00:43:52.200Z,18.00
2022-09-10T00:46:27.733Z,17.90
2022-09-10T00:48:59.001Z,18.00
2022-09-10T00:51:31.052Z,18.00
2022-09-10T00:54:00.354Z,18.00
2022-09-10T00:56:29.315Z,18.00
2022-09-10T00:58:57.839Z,18.00
2022-09-10T01:01:26.024Z,18.00
2022-09-10T01:03:56.658Z,18.00
2022-09-10T01:06:25.059Z,17.90
2022-09-10T01:08:54.375Z,17.90
2022-09-10T01:11:44.749Z,18.00
2022-09-10T01:14:29.556Z,18.00
2022-09-10T01:17:09.955Z,18.00
2022-09-10T01:20:15.903Z,17.90
2022-09-10T01:23:00.584Z,17.90
2022-09-10T01:25:41.403Z,17.90
2022-09-10T01:28:16.289Z,17.90
2022-09-10T01:30:51.564Z,17.90
2022-09-10T01:33:25.730Z,17.90
2022-09-10T01:35:58.543Z,17.90
2022-09-10T01:38:31.729Z,17.90
2022-09-10T01:41:00.664Z,17.80
2022-09-10T01:43:34.413Z,17.80
2022-09-10T01:46:21.748Z,17.80
2022-09-10T01:49:13.776Z,17.80
2022-09-10T01:51:57.030Z,17.70
2022-09-10T01:54:40.259Z,17.70
2022-09-10T01:57:19.892Z,17.70
2022-09-10T01:59:56.833Z,17.70
2022-09-10T02:02:28.781Z,17.70
2022-09-10T02:04:59.005Z,17.70
2022-09-10T02:07:30.604Z,17.70
2022-09-10T02:09:59.259Z,17.70
2022-09-10T02:12:29.001Z,17.70
2022-09-10T02:15:09.917Z,17.70
2022-09-10T02:17:57.183Z,17.70
2022-09-10T02:20:25.585Z,17.70
2022-09-10T02:22:59.104Z,17.70
2022-09-10T02:25:33.370Z,17.80
2022-09-10T02:28:03.166Z,17.80
2022-09-10T02:30:32.543Z,17.80
2022-09-10T02:33:00.610Z,17.80
2022-09-10T02:35:28.654Z,17.80
2022-09-10T02:37:57.614Z,17.80
2022-09-10T02:40:25.906Z,17.70
2022-09-10T02:42:54.938Z,17.70
2022-09-10T02:45:26.370Z,17.70
2022-09-10T02:47:55.886Z,17.70
2022-09-10T02:50:25.449Z,17.70
2022-09-10T02:52:57.508Z,17.70
2022-09-10T02:55:25.829Z,17.80
2022-09-10T02:57:53.827Z,17.80
2022-09-10T03:00:22.621Z,17.80
2022-09-10T03:02:50.638Z,17.70
2022-09-10T03:05:20.094Z,17.70
2022-09-10T03:07:48.177Z,17.70
2022-09-10T03:10:17.437Z,17.70
2022-09-10T03:12:47.949Z,17.70
2022-09-10T03:15:15.984Z,17.60
2022-09-10T03:17:44.826Z,17.60
2022-09-10T03:20:12.810Z,17.60
2022-09-10T03:22:42.238Z,17.70
2022-09-10T03:25:12.641Z,17.70
2022-09-10T03:27:41.565Z,17.80
2022-09-10T03:30:11.482Z,17.70
2022-09-10T03:32:39.694Z,17.70
2022-09-10T03:35:10.243Z,17.70
2022-09-10T03:37:39.407Z,17.70
2022-09-10T03:40:11.126Z,17.70
2022-09-10T03:42:39.703Z,17.70
2022-09-10T03:45:09.075Z,17.70
2022-09-10T03:47:38.562Z,17.70
2022-09-10T03:50:08.416Z,17.70
2022-09-10T03:52:37.514Z,17.70
2022-09-10T03:55:06.341Z,17.80
2022-09-10T03:57:35.737Z,17.80
2022-09-10T04:00:04.328Z,17.80
2022-09-10T04:02:44.141Z,17.80
2022-09-10T04:05:13.736Z,17.80
2022-09-10T04:07:41.739Z,17.80
2022-09-10T04:10:10.100Z,17.80
2022-09-10T04:12:39.567Z,17.80
2022-09-10T04:15:10.115Z,17.80
2022-09-10T04:17:38.018Z,17.80
2022-09-10T04:20:06.800Z,17.80
2022-09-10T04:22:35.492Z,17.80
2022-09-10T04:25:03.516Z,17.80
2022-09-10T04:27:31.832Z,17.80
2022-09-10T04:30:01.247Z,17.90
2022-09-10T04:32:29.285Z,17.80
2022-09-10T04:34:57.338Z,17.80
2022-09-10T04:37:26.101Z,17.80
2022-09-10T04:39:56.143Z,17.70
2022-09-10T04:42:24.623Z,17.80
2022-09-10T04:44:54.141Z,17.90
2022-09-10T04:47:23.461Z,17.90
2022-09-10T04:49:51.630Z,17.90
2022-09-10T04:52:22.745Z,17.90
2022-09-10T04:54:51.941Z,17.90
2022-09-10T04:57:20.877Z,17.90
2022-09-10T04:59:48.886Z,17.90
2022-09-10T05:02:17.129Z,17.80
2022-09-10T05:04:47.794Z,17.90
2022-09-10T05:07:16.351Z,17.80
2022-09-10T05:09:44.287Z,17.90
2022-09-10T05:12:17.206Z,17.90
2022-09-10T05:14:45.266Z,17.90
2022-09-10T05:17:13.234Z,17.90
2022-09-10T05:19:41.367Z,17.90
2022-09-10T05:22:12.066Z,17.90
2022-09-10T05:24:40.011Z,18.00
2022-09-10T05:27:08.113Z,18.00
2022-09-10T05:29:36.094Z,17.90
2022-09-10T05:32:04.429Z,17.90
2022-09-10T05:34:32.398Z,18.00
2022-09-10T05:37:00.354Z,17.90
2022-09-10T05:39:29.698Z,17.90
2022-09-10T05:41:57.862Z,18.00
2022-09-10T05:44:26.646Z,18.00
2022-09-10T05:46:54.643Z,18.00
2022-09-10T05:49:22.580Z,18.00
2022-09-10T05:51:51.065Z,18.00
2022-09-10T05:54:19.181Z,18.00
2022-09-10T05:56:48.751Z,18.00
2022-09-10T05:59:16.920Z,18.00
2022-09-10T06:01:51.431Z,18.00
2022-09-10T06:04:21.100Z,18.00
2022-09-10T06:06:49.641Z,18.00
2022-09-10T06:09:19.146Z,18.00
2022-09-10T06:12:18.391Z,18.10
2022-09-10T06:14:47.110Z,18.00
2022-09-10T06:17:17.668Z,18.00
2022-09-10T06:19:45.679Z,18.00
2022-09-10T06:22:18.019Z,18.00
2022-09-10T06:24:51.036Z,18.00
2022-09-10T06:27:23.244Z,18.00
2022-09-10T06:29:52.037Z,18.00
2022-09-10T06:32:20.504Z,18.10
2022-09-10T06:34:48.604Z,18.10
2022-09-10T06:37:16.610Z,18.10
2022-09-10T06:39:46.377Z,18.10
2022-09-10T06:42:15.699Z,18.10
2022-09-10T06:45:20.194Z,18.20
2022-09-10T06:50:53.802Z,18.10
2022-09-10T06:53:26.500Z,18.10
2022-09-10T06:55:56.327Z,18.20
2022-09-10T06:58:25.517Z,18.20
2022-09-10T07:00:56.139Z,18.30
2022-09-10T07:03:25.512Z,18.40
2022-09-10T07:05:55.651Z,18.50
2022-09-10T07:08:27.464Z,18.50
2022-09-10T07:11:01.045Z,18.50
2022-09-10T07:13:29.403Z,18.50
2022-09-10T07:15:59.300Z,18.50
2022-09-10T07:18:28.703Z,18.60
2022-09-10T07:21:07.913Z,18.60
2022-09-10T07:23:36.280Z,18.60
2022-09-10T07:26:05.665Z,18.70
2022-09-10T07:28:39.587Z,18.70
2022-09-10T07:31:15.078Z,18.80
2022-09-10T07:33:45.334Z,18.90
2022-09-10T07:36:13.656Z,19.00
2022-09-10T07:38:42.655Z,18.90
2022-09-10T07:41:14.021Z,19.00
2022-09-10T07:43:44.531Z,19.00
2022-09-10T07:46:20.387Z,19.00
2022-09-10T07:48:53.970Z,19.00
2022-09-10T07:51:22.041Z,19.10
2022-09-10T07:53:55.112Z,19.10
2022-09-10T07:56:24.209Z,19.10
2022-09-10T07:58:54.822Z,19.00
2022-09-10T08:01:25.173Z,19.00
2022-09-10T08:03:57.398Z,19.00
2022-09-10T08:06:26.226Z,19.00
2022-09-10T08:08:55.047Z,19.00
2022-09-10T08:11:24.108Z,19.00
2022-09-10T08:13:56.754Z,19.00
2022-09-10T08:16:29.954Z,19.10
2022-09-10T08:19:04.557Z,19.10
2022-09-10T08:21:33.901Z,19.10
2022-09-10T08:24:02.657Z,19.20
2022-09-10T08:26:33.641Z,19.20
2022-09-10T08:29:04.045Z,19.10
2022-09-10T08:31:34.581Z,19.10
2022-09-10T08:34:12.133Z,19.00
2022-09-10T08:36:42.416Z,18.90
2022-09-10T08:39:12.222Z,18.90
2022-09-10T08:41:47.902Z,18.90
2022-09-10T08:44:34.628Z,18.90
2022-09-10T08:47:14.522Z,18.80
2022-09-10T08:49:48.059Z,18.90
2022-09-10T08:52:22.349Z,18.90
2022-09-10T08:55:03.912Z,19.00
2022-09-10T08:57:35.821Z,19.00
2022-09-10T09:00:06.290Z,19.10
2022-09-10T09:02:50.755Z,19.20
2022-09-10T09:05:25.760Z,19.30
2022-09-10T09:07:58.551Z,19.30
2022-09-10T09:10:38.549Z,19.40
2022-09-10T09:13:39.598Z,19.50
2022-09-10T09:16:21.669Z,19.60
2022-09-10T09:19:06.602Z,19.70
2022-09-10T09:21:43.715Z,19.70
2022-09-10T09:24:22.496Z,19.60
2022-09-10T09:26:57.990Z,19.60
2022-09-10T09:29:30.019Z,19.60
2022-09-10T09:32:04.579Z,19.50
2022-09-10T09:34:37.609Z,19.40
2022-09-10T09:37:16.807Z,19.40
2022-09-10T09:39:53.991Z,19.30
2022-09-10T09:42:30.190Z,19.30
2022-09-10T09:45:07.560Z,19.40
2022-09-10T09:47:36.463Z,19.40
2022-09-10T09:50:07.105Z,19.30
2022-09-10T09:52:38.221Z,19.20
2022-09-10T09:55:17.261Z,19.30
2022-09-10T09:57:47.170Z,19.30
2022-09-10T10:00:36.677Z,19.20
2022-09-10T10:03:13.657Z,19.10
2022-09-10T10:05:43.407Z,19.10
2022-09-10T10:08:30.135Z,19.00
2022-09-10T10:10:58.645Z,18.90
2022-09-10T10:13:35.827Z,19.00
2022-09-10T10:16:16.845Z,19.00
2022-09-10T10:18:45.816Z,19.10
2022-09-10T10:21:21.240Z,19.10
2022-09-10T10:23:50.432Z,19.10
2022-09-10T10:26:26.829Z,19.10
2022-09-10T10:28:59.728Z,19.10
2022-09-10T10:31:38.624Z,19.10
2022-09-10T10:34:37.293Z,19.10
2022-09-10T10:37:14.025Z,19.10
2022-09-10T10:40:15.230Z,19.20
2022-09-10T10:42:51.648Z,19.10
2022-09-10T10:45:36.541Z,19.10
2022-09-10T10:48:11.817Z,19.10
2022-09-10T10:50:52.953Z,19.10
2022-09-10T10:53:48.725Z,19.10
2022-09-10T10:56:23.510Z,19.10
2022-09-10T10:59:05.420Z,19.10
2022-09-10T11:01:38.283Z,19.20
2022-09-10T11:04:27.044Z,19.20
2022-09-10T11:06:59.909Z,19.20
2022-09-10T11:09:33.957Z,19.30
2022-09-10T11:12:06.151Z,19.30
2022-09-10T11:14:39.849Z,19.30
2022-09-10T11:17:15.638Z,19.30
2022-09-10T11:20:00.601Z,19.30
2022-09-10T11:22:42.595Z,19.30
2022-09-10T11:25:21.403Z,19.30
2022-09-10T11:27:52.505Z,19.20
2022-09-10T11:30:20.747Z,19.10
2022-09-10T11:32:56.626Z,19.00
2022-09-10T11:35:28.884Z,19.00
2022-09-10T11:38:07.758Z,18.90
2022-09-10T11:40:44.580Z,18.80
2022-09-10T11:43:15.082Z,18.60
2022-09-10T11:45:49.842Z,18.70
2022-09-10T11:48:22.714Z,18.70
2022-09-10T11:50:56.017Z,18.60
2022-09-10T11:53:25.756Z,18.50
2022-09-10T11:56:12.753Z,18.50
2022-09-10T11:58:50.323Z,18.50
2022-09-10T12:01:32.586Z,18.60
2022-09-10T12:04:36.769Z,18.70
2022-09-10T12:07:17.579Z,18.90
2022-09-10T12:09:56.038Z,19.10
2022-09-10T12:12:31.458Z,19.10
2022-09-10T12:14:59.839Z,19.20
2022-09-10T12:17:31.672Z,19.20
2022-09-10T12:20:02.646Z,19.10
2022-09-10T12:22:35.752Z,19.00
2022-09-10T12:25:07.587Z,18.90
2022-09-10T12:27:49.012Z,18.80
2022-09-10T12:31:01.035Z,18.70
2022-09-10T12:34:16.309Z,18.60
2022-09-10T12:37:21.989Z,18.60
2022-09-10T12:40:13.107Z,18.60
2022-09-10T12:42:45.202Z,18.60
2022-09-10T12:45:35.954Z,18.70
2022-09-10T12:48:14.229Z,18.70
2022-09-10T12:50:46.212Z,18.80
2022-09-10T12:53:57.270Z,18.80
2022-09-10T12:56:52.703Z,18.90
2022-09-10T12:59:40.921Z,19.00
2022-09-10T13:02:27.312Z,19.10
2022-09-10T13:04:58.580Z,19.10
2022-09-10T13:07:38.316Z,19.10
2022-09-10T13:10:21.948Z,19.00
2022-09-10T13:12:55.188Z,19.10
2022-09-10T13:15:26.563Z,19.10
2022-09-10T13:18:23.877Z,19.00
2022-09-10T13:20:52.006Z,18.90
2022-09-10T13:23:22.968Z,18.70
2022-09-10T13:25:52.272Z,18.60
2022-09-10T13:28:58.762Z,18.50
2022-09-10T13:31:31.460Z,18.30
2022-09-10T13:34:27.344Z,18.30
2022-09-10T13:37:05.211Z,18.30
2022-09-10T13:40:00.173Z,18.20
2022-09-10T13:42:59.101Z,18.20
2022-09-10T13:45:29.975Z,18.30
2022-09-10T13:48:03.399Z,18.40
2022-09-10T13:50:40.131Z,18.40
2022-09-10T13:53:12.295Z,18.40
2022-09-10T13:55:48.830Z,18.40
2022-09-10T13:58:23.163Z,18.40
2022-09-10T14:00:54.314Z,18.40
2022-09-10T14:03:23.964Z,18.30
2022-09-10T14:05:57.268Z,18.30
2022-09-10T14:08:29.226Z,18.30
2022-09-10T14:11:01.112Z,18.30
2022-09-10T14:13:35.329Z,18.30
2022-09-10T14:16:06.273Z,18.30
2022-09-10T14:18:43.365Z,18.30
2022-09-10T14:21:15.114Z,18.30
2022-09-10T14:23:47.345Z,18.40
2022-09-10T14:26:23.297Z,18.40
2022-09-10T14:28:54.632Z,18.50
2022-09-10T14:31:35.407Z,18.60
2022-09-10T14:34:26.527Z,18.80
2022-09-10T14:36:55.953Z,18.90
2022-09-10T14:39:24.836Z,19.10
2022-09-10T14:42:11.483Z,19.10
2022-09-10T14:44:43.610Z,19.10
2022-09-10T14:47:16.228Z,19.20
2022-09-10T14:49:47.150Z,19.30
2022-09-10T14:52:16.574Z,19.40
2022-09-10T14:54:46.557Z,19.40
2022-09-10T14:57:16.823Z,19.50
2022-09-10T14:59:46.613Z,19.60
2022-09-10T15:02:18.087Z,19.70
2022-09-10T15:04:46.297Z,19.70
2022-09-10T15:07:16.311Z,19.70
2022-09-10T15:09:44.431Z,19.70
2022-09-10T15:12:19.693Z,19.70
2022-09-10T15:14:47.762Z,19.70
2022-09-10T15:17:17.492Z,19.70
2022-09-10T15:19:46.931Z,19.60
2022-09-10T15:22:21.320Z,19.50
2022-09-10T15:25:08.625Z,19.50
2022-09-10T15:27:36.993Z,19.40
2022-09-10T15:30:06.253Z,19.40
2022-09-10T15:32:34.264Z,19.30
2022-09-10T15:35:03.277Z,19.30
2022-09-10T15:37:32.633Z,19.20
2022-09-10T15:40:01.153Z,19.20
2022-09-10T15:42:29.195Z,19.10
2022-09-10T15:44:57.202Z,19.10
2022-09-10T15:47:26.173Z,19.00
2022-09-10T15:49:54.252Z,18.90
2022-09-10T15:52:22.262Z,18.90
2022-09-10T15:54:51.624Z,18.80
2022-09-10T15:57:19.606Z,18.80
2022-09-10T15:59:47.969Z,18.70
2022-09-10T16:02:16.507Z,18.70
2022-09-10T16:04:44.522Z,18.70
2022-09-10T16:07:14.375Z,18.70
2022-09-10T16:09:43.475Z,18.70
2022-09-10T16:12:13.092Z,18.70
2022-09-10T16:14:44.333Z,18.70
2022-09-10T16:17:12.582Z,18.70
2022-09-10T16:19:40.765Z,18.60
2022-09-10T16:22:09.098Z,18.60
2022-09-10T16:24:37.135Z,18.60
2022-09-10T16:27:05.230Z,18.60
2022-09-10T16:29:35.183Z,18.60
2022-09-10T16:32:03.713Z,18.60
2022-09-10T16:34:32.101Z,18.60
2022-09-10T16:37:00.141Z,18.70
2022-09-10T16:39:28.163Z,18.70
2022-09-10T16:41:56.958Z,18.70
2022-09-10T16:44:25.038Z,18.70
2022-09-10T16:46:55.567Z,18.70
2022-09-10T16:49:23.600Z,18.70
2022-09-10T16:51:51.641Z,18.70
2022-09-10T16:54:20.976Z,18.70
2022-09-10T16:56:50.190Z,18.70
2022-09-10T16:59:20.275Z,18.60
2022-09-10T17:01:49.837Z,18.60
2022-09-10T17:04:24.862Z,18.60
2022-09-10T17:06:56.138Z,18.60
2022-09-10T17:09:24.835Z,18.60
2022-09-10T17:11:53.204Z,18.50
2022-09-10T17:14:21.327Z,18.50
2022-09-10T17:16:49.886Z,18.50
2022-09-10T17:19:23.438Z,18.50
2022-09-10T17:21:55.135Z,18.50
2022-09-10T17:24:24.800Z,18.50
2022-09-10T17:26:55.010Z,18.50
2022-09-10T17:29:24.986Z,18.50
2022-09-10T17:31:54.762Z,18.60
2022-09-10T17:34:25.167Z,18.50
2022-09-10T17:36:54.040Z,18.50
2022-09-10T17:39:22.161Z,18.50
2022-09-10T17:41:50.201Z,18.50
2022-09-10T17:44:18.247Z,18.50
2022-09-10T17:46:46.389Z,18.40
2022-09-10T17:49:15.163Z,18.40
2022-09-10T17:51:44.900Z,18.40
2022-09-10T17:54:16.740Z,18.40
2022-09-10T17:56:44.900Z,18.50
2022-09-10T17:59:14.926Z,18.40
2022-09-10T18:01:43.382Z,18.40
2022-09-10T18:04:14.312Z,18.40
2022-09-10T18:06:46.847Z,18.40
2022-09-10T18:09:17.249Z,18.40
2022-09-10T18:11:45.931Z,18.40
2022-09-10T18:14:18.400Z,18.30
2022-09-10T18:16:47.219Z,18.30
2022-09-10T18:19:17.440Z,18.30
2022-09-10T18:21:48.029Z,18.20
2022-09-10T18:24:17.919Z,18.10
2022-09-10T18:26:47.877Z,18.10
2022-09-10T18:29:18.992Z,18.00
2022-09-10T18:31:49.462Z,18.00
2022-09-10T18:34:23.014Z,18.00
2022-09-10T18:36:54.681Z,17.90
2022-09-10T18:39:24.163Z,17.90
2022-09-10T18:41:52.673Z,17.80
2022-09-10T18:44:22.264Z,17.90
2022-09-10T18:46:51.069Z,17.90
2022-09-10T18:49:21.566Z,17.80
2022-09-10T18:51:50.234Z,17.80
2022-09-10T18:54:20.632Z,17.90
2022-09-10T18:56:49.970Z,17.80
2022-09-10T18:59:20.629Z,17.90
2022-09-10T19:01:49.340Z,17.80
2022-09-10T19:04:20.003Z,17.80
2022-09-10T19:06:49.185Z,17.80
2022-09-10T19:09:20.113Z,17.80
2022-09-10T19:11:49.860Z,17.80
2022-09-10T19:14:19.697Z,17.80
2022-09-10T19:16:48.894Z,17.80
2022-09-10T19:19:19.608Z,17.90
2022-09-10T19:21:48.660Z,17.80
2022-09-10T19:24:17.025Z,17.90
2022-09-10T19:26:46.852Z,17.80
2022-09-10T19:29:17.728Z,17.80
2022-09-10T19:31:47.470Z,17.80
2022-09-10T19:34:16.795Z,17.80
2022-09-10T19:36:45.111Z,17.80
2022-09-10T19:39:15.054Z,17.90
2022-09-10T19:41:44.700Z,17.80
2022-09-10T19:44:16.017Z,17.90
2022-09-10T19:46:44.902Z,17.90
2022-09-10T19:49:13.177Z,17.80
2022-09-10T19:51:41.888Z,17.80
2022-09-10T19:54:11.973Z,17.80
2022-09-10T19:56:42.386Z,17.90
2022-09-10T19:59:11.300Z,17.80
2022-09-10T20:01:43.609Z,17.80
2022-09-10T20:04:13.995Z,17.80
2022-09-10T20:06:45.785Z,17.80
2022-09-10T20:09:13.845Z,17.80
2022-09-10T20:11:41.931Z,17.80
2022-09-10T20:14:13.375Z,17.80
2022-09-10T20:16:44.639Z,17.80
2022-09-10T20:19:14.445Z,17.80
2022-09-10T20:21:42.688Z,17.80
2022-09-10T20:24:11.247Z,17.80
2022-09-10T20:26:41.159Z,17.80
2022-09-10T20:29:12.359Z,17.80
2022-09-10T20:31:43.233Z,17.80
2022-09-10T20:34:13.821Z,17.80
2022-09-10T20:36:43.004Z,17.80
2022-09-10T20:39:13.553Z,17.70
2022-09-10T20:41:41.640Z,17.70
2022-09-10T20:44:12.799Z,17.70
2022-09-10T20:46:42.616Z,17.70
2022-09-10T20:49:11.748Z,17.70
2022-09-10T20:51:41.999Z,17.70
2022-09-10T20:54:12.647Z,17.70
2022-09-10T20:56:40.707Z,17.70
2022-09-10T20:59:08.856Z,17.70
2022-09-10T21:01:37.024Z,17.70
2022-09-10T21:04:06.718Z,17.70
2022-09-10T21:06:35.547Z,17.70
2022-09-10T21:09:05.250Z,17.70
2022-09-10T21:11:35.082Z,17.80
2022-09-10T21:14:04.808Z,17.80
2022-09-10T21:16:34.583Z,17.80
2022-09-10T21:19:04.628Z,17.70
2022-09-10T21:21:35.183Z,17.70
2022-09-10T21:24:05.574Z,17.70
2022-09-10T21:26:37.714Z,17.70
2022-09-10T21:29:07.354Z,17.80
2022-09-10T21:31:36.441Z,17.80
2022-09-10T21:34:05.635Z,17.80
2022-09-10T21:36:36.663Z,17.80
2022-09-10T21:39:07.093Z,17.80
2022-09-10T21:41:36.986Z,17.80
2022-09-10T21:44:07.998Z,17.80
2022-09-10T21:46:36.211Z,17.80
2022-09-10T21:49:04.985Z,17.80
2022-09-10T21:51:34.436Z,17.70
2022-09-10T21:54:02.599Z,17.70
2022-09-10T21:56:30.626Z,17.70
2022-09-10T21:59:01.243Z,17.70
2022-09-10T22:01:31.363Z,17.70
2022-09-10T22:04:01.079Z,17.80
2022-09-10T22:06:30.322Z,17.80
2022-09-10T22:09:02.062Z,17.80
2022-09-10T22:11:32.241Z,17.80
2022-09-10T22:14:02.308Z,17.80
2022-09-10T22:16:32.041Z,17.80
2022-09-10T22:19:01.700Z,17.80
2022-09-10T22:21:30.002Z,17.80
2022-09-10T22:23:59.809Z,17.80
2022-09-10T22:26:29.118Z,17.70
2022-09-10T22:29:00.249Z,17.70
2022-09-10T22:31:31.233Z,17.70
2022-09-10T22:34:00.712Z,17.70
2022-09-10T22:36:31.440Z,17.70
2022-09-10T22:39:02.331Z,17.70
2022-09-10T22:41:31.807Z,17.70
2022-09-10T22:44:00.173Z,17.70
2022-09-10T22:46:28.402Z,17.70
2022-09-10T22:48:57.247Z,17.70
2022-09-10T22:51:28.104Z,17.70
2022-09-10T22:53:58.006Z,17.70
2022-09-10T22:56:28.509Z,17.70
2022-09-10T22:58:58.339Z,17.70
2022-09-10T23:01:28.794Z,17.70
2022-09-10T23:03:58.155Z,17.70
2022-09-10T23:06:28.269Z,17.60
2022-09-10T23:08:58.446Z,17.60
2022-09-10T23:11:29.673Z,17.60
2022-09-10T23:13:59.352Z,17.60
2022-09-10T23:16:29.317Z,17.60
2022-09-10T23:19:00.221Z,17.60
2022-09-10T23:21:30.490Z,17.60
2022-09-10T23:24:00.735Z,17.50
2022-09-10T23:26:30.615Z,17.50
2022-09-10T23:29:00.346Z,17.50
2022-09-10T23:31:30.150Z,17.50
2022-09-10T23:33:59.574Z,17.50
2022-09-10T23:36:29.981Z,17.60
2022-09-10T23:38:59.427Z,17.50
2022-09-10T23:41:29.791Z,17.50
2022-09-10T23:43:58.252Z,17.50
2022-09-10T23:46:26.530Z,17.50
2022-09-10T23:48:54.962Z,17.50
2022-09-10T23:51:23.027Z,17.40
2022-09-10T23:53:51.261Z,17.40
2022-09-10T23:56:21.883Z,17.40
2022-09-10T23:58:52.114Z,17.40
